createdAt,value
2023-04-11T00:04:45.115Z,12.6
2023-04-11T00:10:45.823Z,12.5
2023-04-11T00:16:44.964Z,12.5
2023-04-11T00:22:45.537Z,12.6
2023-04-11T00:28:45.197Z,12.6
2023-04-11T00:34:44.942Z,12.6
2023-04-11T00:40:45.306Z,12.5
2023-04-11T00:46:46.377Z,12.6
2023-04-11T00:52:44.955Z,12.5
2023-04-11T00:58:46.222Z,12.6
2023-04-11T01:04:44.873Z,12.5
2023-04-11T01:10:45.432Z,12.5
2023-04-11T01:16:44.994Z,12.5
2023-04-11T01:22:45.333Z,12.4
2023-04-11T01:28:44.910Z,12.3
2023-04-11T01:34:44.899Z,12.3
2023-04-11T01:40:44.834Z,12.1
2023-04-11T01:46:44.988Z,12.1
2023-04-11T01:52:44.974Z,12.2
2023-04-11T01:58:45.102Z,12.1
2023-04-11T02:04:45.119Z,12
2023-04-11T02:10:46.452Z,12
2023-04-11T02:16:45.446Z,11.9
2023-04-11T02:22:44.979Z,11.7
2023-04-11T02:28:44.931Z,11.8
2023-04-11T02:34:44.957Z,11.7
2023-04-11T02:40:45.703Z,11.7
2023-04-11T02:46:44.936Z,11.6
2023-04-11T02:52:47.238Z,11.5
2023-04-11T02:58:45.109Z,11.6
2023-04-11T03:04:45.217Z,11.7
2023-04-11T03:10:44.838Z,11.6
2023-04-11T03:16:45.390Z,11.6
2023-04-11T03:22:45.198Z,11.4
2023-04-11T03:28:45.723Z,11.3
2023-04-11T03:34:45.112Z,11.2
2023-04-11T03:40:44.930Z,11.3
2023-04-11T03:46:45.187Z,11.2
2023-04-11T03:52:45.024Z,11.3
2023-04-11T03:58:45.501Z,11.4
2023-04-11T04:04:45.139Z,11.3
2023-04-11T04:10:44.888Z,11.2
2023-04-11T04:16:45.386Z,11.2
2023-04-11T04:22:45.514Z,11
2023-04-11T04:28:45.987Z,11.1
2023-04-11T04:34:45.029Z,11.2
2023-04-11T04:40:45.077Z,11.2
2023-04-11T04:46:45.295Z,11
2023-04-11T04:52:44.889Z,11
2023-04-11T04:58:44.984Z,11
2023-04-11T05:04:44.841Z,11
2023-04-11T05:10:44.900Z,11
2023-04-11T05:16:45.698Z,11
2023-04-11T05:22:44.980Z,11
2023-04-11T05:28:44.832Z,11.1
2023-04-11T05:34:44.831Z,11.1
2023-04-11T05:40:44.822Z,11
2023-04-11T05:46:45.185Z,11
2023-04-11T05:52:45.619Z,11
2023-04-11T05:58:45.084Z,11.2
2023-04-11T06:04:45.164Z,11.2
2023-04-11T06:10:45.151Z,11.2
2023-04-11T06:16:45.315Z,11
2023-04-11T06:22:44.759Z,10.9
2023-04-11T06:28:44.888Z,11
2023-04-11T06:34:44.997Z,11
2023-04-11T06:40:44.964Z,11.1
2023-04-11T06:46:45.225Z,11.1
2023-04-11T06:52:45.563Z,11.4
2023-04-11T06:58:44.920Z,11.5
2023-04-11T07:04:45.791Z,11.4
2023-04-11T07:10:46.264Z,11.2
2023-04-11T07:16:47.236Z,11.3
2023-04-11T07:22:45.533Z,11.4
2023-04-11T07:28:44.983Z,11.4
2023-04-11T07:34:45.860Z,11.5
2023-04-11T07:40:45.470Z,11.7
2023-04-11T07:46:44.995Z,11.9
2023-04-11T07:52:44.951Z,11.9
2023-04-11T07:58:45.587Z,11.8
2023-04-11T08:04:45.015Z,11.7
2023-04-11T08:10:45.365Z,11.8
2023-04-11T08:16:45.169Z,12
2023-04-11T08:22:45.557Z,12.1
2023-04-11T08:28:45.693Z,12.2
2023-04-11T08:34:45.989Z,12.2
2023-04-11T08:40:44.949Z,12.5
2023-04-11T08:46:46.208Z,12.5
2023-04-11T08:52:47.129Z,12.4
2023-04-11T08:58:46.625Z,12.9
2023-04-11T09:04:45.269Z,12.9
2023-04-11T09:10:45.758Z,12.9
2023-04-11T09:16:45.035Z,12.9
2023-04-11T09:22:45.599Z,13.1
2023-04-11T09:28:46.747Z,13.2
2023-04-11T09:34:45.258Z,13.4
2023-04-11T09:40:44.827Z,13.4
2023-04-11T09:46:46.602Z,13.6
2023-04-11T09:52:44.956Z,13.6
2023-04-11T09:58:45.530Z,13.6
2023-04-11T10:04:46.058Z,13.6
2023-04-11T10:10:44.952Z,13.8
2023-04-11T10:16:45.480Z,13.7
2023-04-11T10:22:44.778Z,13.8
2023-04-11T10:28:44.811Z,13.8
2023-04-11T10:34:44.680Z,14.1
2023-04-11T10:40:44.731Z,14.1
2023-04-11T10:46:44.862Z,14.3
2023-04-11T10:52:44.820Z,14.4
2023-04-11T10:58:45.271Z,14.5
2023-04-11T11:04:44.801Z,14.9
2023-04-11T11:10:45.431Z,14.9
2023-04-11T11:16:45.149Z,14.2
2023-04-11T11:22:45.465Z,14.2
2023-04-11T11:28:46.256Z,14.3
2023-04-11T11:34:46.151Z,14.5
2023-04-11T11:40:44.864Z,14.5
2023-04-11T11:46:45.183Z,14.6
2023-04-11T11:52:45.037Z,14.4
2023-04-11T11:58:45.216Z,14.4
2023-04-11T12:04:45.356Z,14.5
2023-04-11T12:10:45.407Z,14.4
2023-04-11T12:16:45.217Z,15.1
2023-04-11T12:22:45.085Z,16
2023-04-11T12:28:46.272Z,16.1
2023-04-11T12:34:45.583Z,15.9
2023-04-11T12:40:45.307Z,16
2023-04-11T12:46:45.461Z,15.8
2023-04-11T12:52:44.983Z,15.8
2023-04-11T12:58:46.832Z,15.9
2023-04-11T13:04:45.807Z,15.9
2023-04-11T13:10:45.213Z,15.8
2023-04-11T13:16:45.109Z,16.8
2023-04-11T13:22:45.132Z,17.5
2023-04-11T13:28:45.722Z,17.3
2023-04-11T13:34:45.725Z,17.4
2023-04-11T13:40:45.538Z,18.1
2023-04-11T13:46:46.213Z,18.2
2023-04-11T13:52:45.272Z,17.4
2023-04-11T13:58:45.279Z,17.4
2023-04-11T14:04:46.480Z,17.5
2023-04-11T14:10:45.006Z,17.5
2023-04-11T14:16:46.498Z,17.5
2023-04-11T14:22:44.913Z,16.9
2023-04-11T14:28:45.029Z,17.7
2023-04-11T14:34:45.650Z,18.2
2023-04-11T14:40:45.039Z,18.6
2023-04-11T14:46:45.369Z,19.9
2023-04-11T14:52:44.989Z,19.9
2023-04-11T14:58:45.094Z,18.5
2023-04-11T15:04:46.025Z,17.9
2023-04-11T15:10:45.055Z,17.1
2023-04-11T15:16:45.560Z,16.9
2023-04-11T15:22:45.010Z,16.9
2023-04-11T15:28:46.291Z,17
2023-04-11T15:34:45.047Z,19.4
2023-04-11T15:40:45.038Z,21.7
2023-04-11T15:46:46.759Z,23.3
2023-04-11T15:52:45.437Z,23.9
2023-04-11T15:58:45.078Z,25.3
2023-04-11T16:04:47.833Z,26.1
2023-04-11T16:10:45.328Z,26.4
2023-04-11T16:16:45.170Z,26.5
2023-04-11T16:22:45.023Z,27.1
2023-04-11T16:28:45.897Z,21.9
2023-04-11T16:34:45.216Z,20.9
2023-04-11T16:40:46.829Z,18.8
2023-04-11T16:46:45.385Z,18.5
2023-04-11T16:52:45.617Z,18.6
2023-04-11T16:58:45.220Z,18.3
2023-04-11T17:04:45.275Z,17.5
2023-04-11T17:10:45.679Z,16.7
2023-04-11T17:16:45.515Z,16.7
2023-04-11T17:22:46.183Z,16.5
2023-04-11T17:28:45.135Z,16.3
2023-04-11T17:34:45.181Z,16.1
2023-04-11T17:40:45.756Z,15.7
2023-04-11T17:46:45.545Z,15.6
2023-04-11T17:52:45.090Z,15.2
2023-04-11T17:58:44.981Z,14.9
2023-04-11T18:04:45.533Z,14.9
2023-04-11T18:10:45.567Z,14.5
2023-04-11T18:16:45.829Z,14.2
2023-04-11T18:22:45.489Z,14.2
2023-04-11T18:28:44.994Z,14.2
2023-04-11T18:34:45.930Z,13.9
2023-04-11T18:40:46.065Z,13.9
2023-04-11T18:46:44.993Z,13.9
2023-04-11T18:52:45.813Z,13.9
2023-04-11T18:58:47.290Z,13.8
2023-04-11T19:04:46.140Z,13.7
2023-04-11T19:10:45.324Z,13.7
2023-04-11T19:16:45.450Z,13.5
2023-04-11T19:22:46.228Z,13.5
2023-04-11T19:28:45.323Z,13.4
2023-04-11T19:34:45.553Z,13.2
2023-04-11T19:40:45.719Z,13.2
2023-04-11T19:46:45.721Z,13.3
2023-04-11T19:52:45.074Z,13.3
2023-04-11T19:58:46.088Z,13.2
2023-04-11T20:04:46.017Z,13.1
2023-04-11T20:10:45.020Z,13
2023-04-11T20:16:45.258Z,12.9
2023-04-11T20:22:45.285Z,12.9
2023-04-11T20:28:45.267Z,12.8
2023-04-11T20:34:46.183Z,12.8
2023-04-11T20:40:45.195Z,12.7
2023-04-11T20:46:45.117Z,12.6
2023-04-11T20:52:45.184Z,12.6
2023-04-11T20:58:45.457Z,12.6
2023-04-11T21:04:45.319Z,12.6
2023-04-11T21:10:45.424Z,12.6
2023-04-11T21:16:45.215Z,12.6
2023-04-11T21:22:45.521Z,12.6
2023-04-11T21:28:45.878Z,12.6
2023-04-11T21:34:45.291Z,12.7
2023-04-11T21:40:45.903Z,12.7
2023-04-11T21:46:45.349Z,12.7
2023-04-11T21:52:45.467Z,12.7
2023-04-11T21:58:45.018Z,12.7
2023-04-11T22:05:04.055Z,12.5
2023-04-11T22:10:47.695Z,12.6
2023-04-11T22:16:45.413Z,12.5
2023-04-11T22:22:45.037Z,12.5
2023-04-11T22:28:45.163Z,12.5
2023-04-11T22:34:46.107Z,12.4
2023-04-11T22:40:46.489Z,12.4
2023-04-11T22:46:45.278Z,12.1
2023-04-11T22:52:45.849Z,12
2023-04-11T22:58:45.245Z,12.2
2023-04-11T23:04:45.744Z,12.3
2023-04-11T23:10:45.396Z,12.4
2023-04-11T23:16:45.379Z,12.3
2023-04-11T23:22:45.513Z,12.3
2023-04-11T23:28:45.090Z,12.4
2023-04-11T23:34:45.437Z,12.4
2023-04-11T23:40:45.292Z,12.4
2023-04-11T23:46:45.304Z,12.4
2023-04-11T23:52:45.098Z,12.4
2023-04-11T23:58:46.431Z,12.4
